CYDF/YDF METAR and TAF weather

Enter ICAO airport designator
Station Type Date Time Source
CYDF METAR 2018/04/19 13:00 UTC NOAA

CYDF 191300Z 26007KT 230V290 15SM OVC015 03/01 A2952 RMK SC8 SLP999


Station Type Date Time Source
CYDF Decoded METAR 2018/04/19 13:00 UTC NOAA

Deer Lake, Nfld., Canada (CYDF) 49-13N 057-24W 22M
Apr 19, 2018 - 09:00 AM EDT / 2018.04.19 1300 UTC
Wind: from the W (260 degrees) at 8 MPH (7 KT) (direction variable):0
Visibility: 15 mile(s):0
Sky conditions: overcast
Temperature: 37 F (3 C)
Dew Point: 33 F (1 C)
Relative Humidity: 86%
Pressure (altimeter): 29.52 in. Hg (999 hPa)
ob: CYDF 191300Z 26007KT 230V290 15SM OVC015 03/01 A2952 RMK SC8 SLP999
cycle: 13

Station Type Date Time Source
CYDF TAF 2018/04/19 08:48 UTC NOAA

TAF CYDF 190747Z 1908/1920 24005KT 6SM -SN OVC015
TEMPO 1908/1912 2SM -SN BR OVC008 PROB30 1908/1912 2SM -FZDZ BR
FM191200 25010KT P6SM OVC015
TEMPO 1912/1915 3SM -RASN OVC007
FM191500 27010G20KT P6SM OVC015
RMK NXT FCST BY 191400Z


Example: see airport list